createdAt,value
2023-08-17T00:01:16.975Z,95643.09
2023-08-17T00:03:43.594Z,95645.72
2023-08-17T00:06:10.253Z,95643.09
2023-08-17T00:08:36.883Z,95652.53
2023-08-17T00:11:03.513Z,95651.56
2023-08-17T00:13:30.079Z,95655.84
2023-08-17T00:15:56.654Z,95656.47
2023-08-17T00:18:23.239Z,95649.22
2023-08-17T00:20:49.885Z,95652.97
2023-08-17T00:23:16.509Z,95650.66
2023-08-17T00:25:43.097Z,95647.41
2023-08-17T00:28:09.761Z,95645.28
2023-08-17T00:30:36.508Z,95651.22
2023-08-17T00:33:03.588Z,95648.00
2023-08-17T00:35:30.275Z,95642.78
2023-08-17T00:37:57.022Z,95644.72
2023-08-17T00:40:23.818Z,95644.19
2023-08-17T00:42:50.657Z,95644.66
2023-08-17T00:45:17.381Z,95636.59
2023-08-17T00:47:44.119Z,95634.16
2023-08-17T00:50:12.819Z,95640.94
2023-08-17T00:52:39.862Z,95646.84
2023-08-17T00:55:07.177Z,95634.88
2023-08-17T00:57:34.896Z,95635.34
2023-08-17T01:00:05.343Z,95630.50
2023-08-17T01:02:33.636Z,95632.59
2023-08-17T01:05:00.420Z,95637.41
2023-08-17T01:07:27.515Z,95631.16
2023-08-17T01:09:54.603Z,95631.41
2023-08-17T01:12:36.582Z,95636.78
2023-08-17T01:15:15.697Z,95631.66
2023-08-17T01:18:06.192Z,95638.41
2023-08-17T01:20:34.484Z,95622.75
2023-08-17T01:23:08.353Z,95631.16
2023-08-17T01:25:35.044Z,95631.97
2023-08-17T01:28:01.634Z,95627.91
2023-08-17T01:30:28.367Z,95620.63
2023-08-17T01:33:07.656Z,95632.00
2023-08-17T01:35:43.277Z,95629.88
2023-08-17T01:38:17.509Z,95627.84
2023-08-17T01:40:46.847Z,95627.84
2023-08-17T01:43:15.564Z,95627.84
2023-08-17T01:45:42.164Z,95630.84
2023-08-17T01:48:08.855Z,95625.16
2023-08-17T01:50:37.189Z,95626.28
2023-08-17T01:53:04.285Z,95628.00
2023-08-17T01:55:31.086Z,95623.41
2023-08-17T01:57:57.696Z,95618.81
2023-08-17T02:00:24.302Z,95624.75
2023-08-17T02:02:50.981Z,95615.59
2023-08-17T02:05:17.770Z,95615.03
2023-08-17T02:07:44.399Z,95618.28
2023-08-17T02:10:11.209Z,95608.56
2023-08-17T02:12:37.896Z,95601.53
2023-08-17T02:15:04.931Z,95602.59
2023-08-17T02:17:31.568Z,95595.03
2023-08-17T02:19:58.217Z,95601.53
2023-08-17T02:22:24.869Z,95595.59
2023-08-17T02:24:51.460Z,95590.16
2023-08-17T02:27:18.186Z,95582.88
2023-08-17T02:29:44.817Z,95576.63
2023-08-17T02:32:11.448Z,95584.22
2023-08-17T02:34:38.119Z,95584.75
2023-08-17T02:37:04.792Z,95584.22
2023-08-17T02:39:31.477Z,95590.16
2023-08-17T02:41:58.233Z,95588.25
2023-08-17T02:44:24.859Z,95596.94
2023-08-17T02:46:51.500Z,95597.19
2023-08-17T02:49:18.201Z,95596.13
2023-08-17T02:51:44.797Z,95601.53
2023-08-17T02:54:11.336Z,95608.03
2023-08-17T02:56:37.927Z,95605.34
2023-08-17T02:59:04.633Z,95610.78
2023-08-17T03:01:31.280Z,95600.78
2023-08-17T03:03:57.951Z,95604.00
2023-08-17T03:06:24.607Z,95605.91
2023-08-17T03:08:51.221Z,95598.09
2023-08-17T03:11:17.831Z,95604.28
2023-08-17T03:13:44.414Z,95600.50
2023-08-17T03:16:11.110Z,95604.25
2023-08-17T03:18:37.747Z,95591.25
2023-08-17T03:21:04.322Z,95596.69
2023-08-17T03:23:30.886Z,95590.72
2023-08-17T03:25:57.483Z,95594.94
2023-08-17T03:28:24.101Z,95596.88
2023-08-17T03:30:50.642Z,95595.06
2023-08-17T03:33:17.210Z,95591.28
2023-08-17T03:35:43.844Z,95593.19
2023-08-17T03:38:10.471Z,95583.75
2023-08-17T03:40:37.085Z,95592.63
2023-08-17T03:43:04.058Z,95590.50
2023-08-17T03:45:31.249Z,95589.41
2023-08-17T03:47:57.988Z,95594.53
2023-08-17T03:50:27.832Z,95592.34
2023-08-17T03:52:54.624Z,95592.63
2023-08-17T03:55:21.341Z,95591.28
2023-08-17T03:57:48.025Z,95594.53
2023-08-17T04:00:15.001Z,95596.91
2023-08-17T04:02:41.785Z,95602.00
2023-08-17T04:05:08.739Z,95601.19
2023-08-17T04:07:35.689Z,95604.69
2023-08-17T04:10:02.443Z,95614.84
2023-08-17T04:12:48.982Z,95612.19
2023-08-17T04:15:35.635Z,95608.63
2023-08-17T04:18:22.255Z,95612.63
2023-08-17T04:20:49.407Z,95620.44
2023-08-17T04:23:16.038Z,95617.78
2023-08-17T04:25:44.622Z,95612.13
2023-08-17T04:28:11.273Z,95620.25
2023-08-17T04:30:39.257Z,95622.88
2023-08-17T04:33:06.622Z,95629.88
2023-08-17T04:35:33.353Z,95636.41
2023-08-17T04:38:00.035Z,95640.72
2023-08-17T04:40:26.798Z,95642.34
2023-08-17T04:42:53.449Z,95648.56
2023-08-17T04:45:20.110Z,95653.94
2023-08-17T04:47:46.771Z,95654.78
2023-08-17T04:50:13.357Z,95655.84
2023-08-17T04:52:39.990Z,95666.34
2023-08-17T04:55:06.836Z,95665.28
2023-08-17T04:57:33.442Z,95660.13
2023-08-17T05:00:00.080Z,95669.06
2023-08-17T05:02:26.752Z,95669.88
2023-08-17T05:04:53.544Z,95682.03
2023-08-17T05:07:20.274Z,95679.06
2023-08-17T05:09:46.861Z,95686.63
2023-08-17T05:12:13.451Z,95691.75
2023-08-17T05:14:40.020Z,95698.53
2023-08-17T05:17:06.601Z,95703.97
2023-08-17T05:19:33.192Z,95708.03
2023-08-17T05:21:59.828Z,95713.16
2023-08-17T05:24:26.447Z,95726.19
2023-08-17T05:26:53.254Z,95729.75
2023-08-17T05:29:19.869Z,95730.06
2023-08-17T05:31:46.460Z,95725.41
2023-08-17T05:34:13.132Z,95725.63
2023-08-17T05:36:39.702Z,95736.13
2023-08-17T05:39:06.388Z,95734.41
2023-08-17T05:41:33.072Z,95731.75
2023-08-17T05:43:59.696Z,95734.25
2023-08-17T05:46:26.385Z,95730.19
2023-08-17T05:48:53.098Z,95726.19
2023-08-17T05:51:19.782Z,95725.69
2023-08-17T05:53:46.498Z,95728.44
2023-08-17T05:56:13.222Z,95736.78
2023-08-17T05:58:41.440Z,95731.97
2023-08-17T06:01:10.500Z,95736.28
2023-08-17T06:03:38.663Z,95738.75
2023-08-17T06:06:06.544Z,95740.88
2023-08-17T06:08:34.017Z,95741.16
2023-08-17T06:11:00.906Z,95743.59
2023-08-17T06:13:27.482Z,95743.59
2023-08-17T06:15:55.922Z,95743.59
2023-08-17T06:18:23.906Z,95738.75
2023-08-17T06:20:50.531Z,95744.13
2023-08-17T06:23:17.237Z,95747.41
2023-08-17T06:25:44.010Z,95751.16
2023-08-17T06:28:10.649Z,95754.69
2023-08-17T06:30:37.362Z,95757.66
2023-08-17T06:33:04.290Z,95758.19
2023-08-17T06:35:30.912Z,95758.19
2023-08-17T06:37:57.559Z,95754.91
2023-08-17T06:40:24.714Z,95764.16
2023-08-17T06:42:51.362Z,95766.31
2023-08-17T06:45:18.020Z,95773.88
2023-08-17T06:47:44.985Z,95761.97
2023-08-17T06:50:13.307Z,95766.84
2023-08-17T06:52:40.275Z,95774.94
2023-08-17T06:55:07.037Z,95776.81
2023-08-17T06:57:33.732Z,95794.94
2023-08-17T07:00:00.336Z,95791.16
2023-08-17T07:02:30.846Z,95793.59
2023-08-17T07:07:40.626Z,95789.81
2023-08-17T07:10:07.878Z,95795.47
2023-08-17T07:12:34.550Z,95806.28
2023-08-17T07:15:01.423Z,95811.97
2023-08-17T07:17:28.650Z,95810.06
2023-08-17T07:20:14.800Z,95810.06
2023-08-17T07:22:42.212Z,95817.09
2023-08-17T07:25:09.110Z,95816.56
2023-08-17T07:27:35.900Z,95812.78
2023-08-17T07:30:02.686Z,95819.78
2023-08-17T07:32:29.648Z,95821.69
2023-08-17T07:34:56.379Z,95818.19
2023-08-17T07:37:23.214Z,95807.88
2023-08-17T07:39:49.990Z,95803.00
2023-08-17T07:42:16.722Z,95812.75
2023-08-17T07:44:43.573Z,95813.88
2023-08-17T07:47:10.358Z,95815.50
2023-08-17T07:49:37.125Z,95819.28
2023-08-17T07:52:04.146Z,95829.53
2023-08-17T07:54:30.896Z,95834.94
2023-08-17T07:56:57.669Z,95838.72
2023-08-17T07:59:24.589Z,95832.44
2023-08-17T08:01:51.390Z,95839.78
2023-08-17T08:04:18.267Z,95830.81
2023-08-17T08:06:45.070Z,95841.88
2023-08-17T08:09:11.746Z,95835.41
2023-08-17T08:11:38.874Z,95824.00
2023-08-17T08:14:05.491Z,95823.44
2023-08-17T08:16:32.245Z,95820.75
2023-08-17T08:18:59.462Z,95822.75
2023-08-17T08:21:26.298Z,95822.47
2023-08-17T08:23:53.175Z,95816.50
2023-08-17T08:26:19.978Z,95820.59
2023-08-17T08:28:46.798Z,95805.41
2023-08-17T08:31:13.832Z,95803.03
2023-08-17T08:33:40.619Z,95799.75
2023-08-17T08:36:07.360Z,95794.78
2023-08-17T08:38:34.105Z,95798.03
2023-08-17T08:41:03.356Z,95798.56
2023-08-17T08:43:31.080Z,95792.16
2023-08-17T08:46:00.113Z,95799.09
2023-08-17T08:48:27.917Z,95798.28
2023-08-17T08:50:56.839Z,95798.38
2023-08-17T08:53:38.077Z,95801.25
2023-08-17T08:56:08.445Z,95790.94
2023-08-17T08:58:36.145Z,95783.34
2023-08-17T09:03:36.494Z,95785.69
2023-08-17T09:06:04.577Z,95783.75
2023-08-17T09:08:32.010Z,95791.63
2023-08-17T09:10:58.893Z,95793.63
2023-08-17T09:13:25.708Z,95788.66
2023-08-17T09:15:52.426Z,95781.59
2023-08-17T09:18:20.099Z,95785.84
2023-08-17T09:20:49.608Z,95781.69
2023-08-17T09:23:18.933Z,95777.84
2023-08-17T09:25:47.368Z,95775.34
2023-08-17T09:28:18.630Z,95778.75
2023-08-17T09:30:59.642Z,95775.88
2023-08-17T09:33:28.752Z,95767.50
2023-08-17T09:35:59.964Z,95768.69
2023-08-17T09:38:28.089Z,95764.53
2023-08-17T09:40:54.786Z,95772.16
2023-08-17T09:43:22.430Z,95765.06
2023-08-17T09:45:50.363Z,95767.53
2023-08-17T09:48:18.278Z,95768.69
2023-08-17T09:50:47.310Z,95769.38
2023-08-17T09:53:19.054Z,95769.31
2023-08-17T09:55:47.119Z,95763.91
2023-08-17T09:58:14.654Z,95762.25
2023-08-17T10:00:50.557Z,95755.66
2023-08-17T10:03:19.418Z,95759.47
2023-08-17T10:05:56.666Z,95741.19
2023-08-17T10:08:24.654Z,95740.13
2023-08-17T10:13:36.090Z,95719.00
2023-08-17T10:16:44.682Z,95723.28
2023-08-17T10:19:25.651Z,95725.84
2023-08-17T10:22:04.559Z,95713.13
2023-08-17T10:24:34.106Z,95717.31
2023-08-17T10:27:01.926Z,95710.41
2023-08-17T10:29:30.615Z,95712.03
2023-08-17T10:31:58.555Z,95710.38
2023-08-17T10:34:27.704Z,95702.31
2023-08-17T10:36:55.889Z,95697.81
2023-08-17T10:39:28.764Z,95695.47
2023-08-17T10:41:57.489Z,95689.00
2023-08-17T10:44:39.466Z,95679.53
2023-08-17T10:47:25.231Z,95690.47
2023-08-17T10:49:59.761Z,95685.13
2023-08-17T10:52:34.661Z,95679.38
2023-08-17T10:55:04.541Z,95679.38
2023-08-17T10:57:41.793Z,95669.34
2023-08-17T11:00:09.396Z,95668.84
2023-08-17T11:02:36.986Z,95667.94
2023-08-17T11:05:04.441Z,95662.88
2023-08-17T11:07:42.300Z,95659.13
2023-08-17T11:10:27.527Z,95657.63
2023-08-17T11:12:54.960Z,95653.19
2023-08-17T11:15:21.642Z,95654.78
2023-08-17T11:17:48.313Z,95646.84
2023-08-17T11:20:15.559Z,95646.75
2023-08-17T11:22:42.806Z,95644.72
2023-08-17T11:25:09.682Z,95640.72
2023-08-17T11:27:38.903Z,95643.34
2023-08-17T11:30:06.672Z,95631.16
2023-08-17T11:32:33.759Z,95642.16
2023-08-17T11:35:00.490Z,95632.09
2023-08-17T11:37:27.244Z,95636.13
2023-08-17T11:39:53.948Z,95633.88
2023-08-17T11:42:20.688Z,95628.44
2023-08-17T11:44:47.485Z,95635.69
2023-08-17T11:47:14.174Z,95631.03
2023-08-17T11:49:42.372Z,95632.28
2023-08-17T11:52:12.817Z,95630.72
2023-08-17T11:54:42.746Z,95624.50
2023-08-17T11:57:09.532Z,95626.00
2023-08-17T11:59:36.111Z,95627.53
2023-08-17T12:02:02.833Z,95626.13
2023-08-17T12:04:30.291Z,95615.34
2023-08-17T12:06:57.040Z,95620.63
2023-08-17T12:09:26.628Z,95617.19
2023-08-17T12:12:01.427Z,95613.88
2023-08-17T12:14:29.133Z,95605.84
2023-08-17T12:16:56.475Z,95609.97
2023-08-17T12:19:26.268Z,95606.75
2023-08-17T12:21:53.149Z,95605.66
2023-08-17T12:24:19.973Z,95600.91
2023-08-17T12:26:48.155Z,95602.94
2023-08-17T12:29:14.821Z,95604.84
2023-08-17T12:31:42.018Z,95603.53
2023-08-17T12:34:08.660Z,95603.03
2023-08-17T12:36:35.909Z,95597.59
2023-08-17T12:39:03.850Z,95600.38
2023-08-17T12:41:32.158Z,95602.94
2023-08-17T12:43:58.857Z,95590.03
2023-08-17T12:46:26.242Z,95593.44
2023-08-17T12:48:52.971Z,95598.47
2023-08-17T12:51:19.706Z,95596.38
2023-08-17T12:53:50.195Z,95584.22
2023-08-17T12:56:17.516Z,95584.81
2023-08-17T12:58:44.354Z,95590.91
2023-08-17T13:01:11.050Z,95587.44
2023-08-17T13:03:37.765Z,95586.97
2023-08-17T13:06:04.613Z,95585.88
2023-08-17T13:08:31.327Z,95583.88
2023-08-17T13:10:58.084Z,95575.34
2023-08-17T13:13:24.845Z,95578.31
2023-08-17T13:15:51.530Z,95581.38
2023-08-17T13:18:18.144Z,95580.44
2023-08-17T13:20:45.140Z,95574.41
2023-08-17T13:23:12.237Z,95567.13
2023-08-17T13:25:38.856Z,95566.41
2023-08-17T13:28:05.723Z,95564.34
2023-08-17T13:30:32.402Z,95560.31
2023-08-17T13:32:59.203Z,95561.78
2023-08-17T13:35:26.011Z,95558.09
2023-08-17T13:37:53.498Z,95553.81
2023-08-17T13:40:20.481Z,95547.00
2023-08-17T13:42:47.214Z,95547.34
2023-08-17T13:45:13.896Z,95539.47
2023-08-17T13:47:40.542Z,95536.44
2023-08-17T13:50:07.675Z,95537.06
2023-08-17T13:52:34.347Z,95531.16
2023-08-17T13:55:01.028Z,95534.22
2023-08-17T13:57:27.729Z,95531.72
2023-08-17T13:59:54.436Z,95525.19
2023-08-17T14:02:21.077Z,95525.50
2023-08-17T14:04:47.706Z,95522.28
2023-08-17T14:07:14.379Z,95521.03
2023-08-17T14:09:46.547Z,95515.88
2023-08-17T14:12:18.163Z,95504.38
2023-08-17T14:14:44.784Z,95516.84
2023-08-17T14:17:11.420Z,95513.00
2023-08-17T14:19:38.093Z,95512.34
2023-08-17T14:22:04.971Z,95503.78
2023-08-17T14:24:31.666Z,95506.41
2023-08-17T14:26:58.352Z,95503.22
2023-08-17T14:29:25.092Z,95508.47
2023-08-17T14:31:56.149Z,95507.34
2023-08-17T14:34:23.116Z,95502.66
2023-08-17T14:36:49.853Z,95501.22
2023-08-17T14:39:16.531Z,95497.13
2023-08-17T14:41:46.667Z,95489.03
2023-08-17T14:44:13.557Z,95494.88
2023-08-17T14:46:40.323Z,95483.94
2023-08-17T14:49:07.090Z,95483.53
2023-08-17T14:51:39.326Z,95488.31
2023-08-17T14:54:07.550Z,95481.28
2023-08-17T14:56:34.178Z,95480.19
2023-08-17T14:59:00.931Z,95495.41
2023-08-17T15:01:27.586Z,95478.31
2023-08-17T15:03:54.322Z,95481.69
2023-08-17T15:06:32.331Z,95487.63
2023-08-17T15:09:01.216Z,95481.66
2023-08-17T15:11:28.018Z,95477.06
2023-08-17T15:13:54.720Z,95475.91
2023-08-17T15:16:25.144Z,95468.81
2023-08-17T15:18:52.490Z,95474.25
2023-08-17T15:21:19.110Z,95471.84
2023-08-17T15:23:45.715Z,95470.59
2023-08-17T15:26:12.309Z,95474.22
2023-08-17T15:28:42.353Z,95474.63
2023-08-17T15:31:09.009Z,95469.78
2023-08-17T15:33:35.722Z,95463.34
2023-08-17T15:36:02.388Z,95462.41
2023-08-17T15:38:29.069Z,95452.94
2023-08-17T15:40:55.894Z,95454.59
2023-08-17T15:43:22.597Z,95457.16
2023-08-17T15:45:52.746Z,95454.41
2023-08-17T15:48:19.794Z,95458.34
2023-08-17T15:50:46.480Z,95454.06
2023-08-17T15:53:13.122Z,95454.00
2023-08-17T15:55:39.772Z,95444.06
2023-08-17T15:58:06.558Z,95455.13
2023-08-17T16:00:33.340Z,95444.59
2023-08-17T16:03:00.104Z,95446.56
2023-08-17T16:05:26.835Z,95440.81
2023-08-17T16:07:53.447Z,95445.88
2023-08-17T16:10:20.138Z,95435.28
2023-08-17T16:12:46.797Z,95446.94
2023-08-17T16:15:13.376Z,95437.31
2023-08-17T16:17:40.055Z,95446.72
2023-08-17T16:20:08.941Z,95445.75
2023-08-17T16:22:35.653Z,95439.81
2023-08-17T16:25:02.320Z,95446.53
2023-08-17T16:27:29.533Z,95442.88
2023-08-17T16:29:56.387Z,95437.50
2023-08-17T16:32:23.050Z,95435.38
2023-08-17T16:34:49.597Z,95431.00
2023-08-17T16:37:16.677Z,95438.25
2023-08-17T16:39:43.178Z,95427.91
2023-08-17T16:42:09.825Z,95432.28
2023-08-17T16:44:36.384Z,95431.44
2023-08-17T16:47:03.024Z,95433.22
2023-08-17T16:49:30.496Z,95432.00
2023-08-17T16:51:59.636Z,95427.84
2023-08-17T16:54:26.176Z,95431.91
2023-08-17T16:56:54.168Z,95436.63
2023-08-17T16:59:21.133Z,95435.03
2023-08-17T17:01:47.730Z,95441.03
2023-08-17T17:04:14.408Z,95431.69
2023-08-17T17:06:41.089Z,95438.03
2023-08-17T17:09:07.671Z,95429.06
2023-08-17T17:11:34.225Z,95429.25
2023-08-17T17:14:01.018Z,95429.06
2023-08-17T17:16:27.594Z,95435.41
2023-08-17T17:18:54.131Z,95431.88
2023-08-17T17:21:20.672Z,95429.00
2023-08-17T17:23:49.194Z,95422.44
2023-08-17T17:26:15.774Z,95425.69
2023-08-17T17:28:42.353Z,95416.00
2023-08-17T17:31:08.961Z,95413.75
2023-08-17T17:33:35.738Z,95417.84
2023-08-17T17:36:02.399Z,95425.63
2023-08-17T17:38:28.987Z,95423.56
2023-08-17T17:40:57.553Z,95427.72
2023-08-17T17:43:24.564Z,95432.25
2023-08-17T17:45:51.316Z,95423.81
2023-08-17T17:48:18.695Z,95420.50
2023-08-17T17:50:45.889Z,95428.50
2023-08-17T17:53:12.600Z,95428.06
2023-08-17T17:55:39.265Z,95423.03
2023-08-17T17:58:05.973Z,95438.69
2023-08-17T18:00:33.198Z,95430.81
2023-08-17T18:03:13.980Z,95420.00
2023-08-17T18:05:43.093Z,95416.97
2023-08-17T18:08:09.704Z,95414.56
2023-08-17T18:10:41.499Z,95420.75
2023-08-17T18:13:09.269Z,95426.16
2023-08-17T18:15:38.805Z,95426.03
2023-08-17T18:18:06.674Z,95418.06
2023-08-17T18:20:33.855Z,95424.78
2023-08-17T18:23:00.663Z,95435.56
2023-08-17T18:25:27.551Z,95438.41
2023-08-17T18:27:54.461Z,95441.88
2023-08-17T18:30:21.137Z,95439.00
2023-08-17T18:32:47.816Z,95446.31
2023-08-17T18:35:14.659Z,95444.97
2023-08-17T18:37:41.292Z,95441.84
2023-08-17T18:40:08.499Z,95449.22
2023-08-17T18:42:35.191Z,95448.84
2023-08-17T18:45:01.909Z,95447.47
2023-08-17T18:47:28.734Z,95449.91
2023-08-17T18:49:55.474Z,95445.66
2023-08-17T18:52:22.130Z,95442.03
2023-08-17T18:55:01.943Z,95441.75
2023-08-17T18:57:29.330Z,95448.50
2023-08-17T18:59:56.819Z,95444.19
2023-08-17T19:02:23.599Z,95439.16
2023-08-17T19:04:50.315Z,95451.81
2023-08-17T19:07:17.483Z,95453.09
2023-08-17T19:09:46.378Z,95457.00
2023-08-17T19:12:12.978Z,95461.81
2023-08-17T19:14:39.500Z,95462.69
2023-08-17T19:17:06.034Z,95470.09
2023-08-17T19:19:32.692Z,95474.94
2023-08-17T19:21:59.396Z,95472.06
2023-08-17T19:24:25.970Z,95474.56
2023-08-17T19:26:52.496Z,95478.44
2023-08-17T19:29:19.069Z,95485.41
2023-08-17T19:31:45.793Z,95473.56
2023-08-17T19:34:12.484Z,95481.41
2023-08-17T19:36:39.156Z,95487.25
2023-08-17T19:39:05.715Z,95488.75
2023-08-17T19:41:32.222Z,95485.94
2023-08-17T19:43:58.735Z,95492.44
2023-08-17T19:46:26.033Z,95489.81
2023-08-17T19:49:12.687Z,95488.19
2023-08-17T19:51:39.297Z,95491.50
2023-08-17T19:54:06.009Z,95492.97
2023-08-17T19:56:32.771Z,95490.03
2023-08-17T19:59:00.393Z,95499.13
2023-08-17T20:01:26.970Z,95501.22
2023-08-17T20:03:53.605Z,95494.72
2023-08-17T20:06:20.161Z,95502.50
2023-08-17T20:08:46.789Z,95497.00
2023-08-17T20:11:13.711Z,95498.78
2023-08-17T20:13:40.267Z,95496.47
2023-08-17T20:16:06.915Z,95503.44
2023-08-17T20:18:33.634Z,95495.72
2023-08-17T20:21:00.208Z,95502.50
2023-08-17T20:23:26.747Z,95496.53
2023-08-17T20:25:55.582Z,95498.59
2023-08-17T20:28:24.692Z,95497.41
2023-08-17T20:30:59.465Z,95501.09
2023-08-17T20:33:26.709Z,95500.03
2023-08-17T20:35:54.966Z,95497.44
2023-08-17T20:38:22.658Z,95496.94
2023-08-17T20:40:49.242Z,95499.75
2023-08-17T20:43:15.880Z,95502.06
2023-08-17T20:45:43.555Z,95504.66
2023-08-17T20:48:10.724Z,95498.00
2023-08-17T20:50:38.270Z,95502.22
2023-08-17T20:53:08.707Z,95504.06
2023-08-17T20:55:40.063Z,95514.16
2023-08-17T20:58:06.845Z,95508.84
2023-08-17T21:00:34.156Z,95509.28
2023-08-17T21:03:00.722Z,95500.00
2023-08-17T21:05:28.499Z,95505.16
2023-08-17T21:07:55.949Z,95512.81
2023-08-17T21:10:24.161Z,95504.75
2023-08-17T21:12:50.697Z,95502.53
2023-08-17T21:15:17.403Z,95508.56
2023-08-17T21:17:44.076Z,95512.75
2023-08-17T21:20:11.049Z,95509.56
2023-08-17T21:22:39.344Z,95518.16
2023-08-17T21:25:06.791Z,95525.59
2023-08-17T21:27:33.308Z,95523.56
2023-08-17T21:30:00.989Z,95531.66
2023-08-17T21:32:27.904Z,95532.75
2023-08-17T21:34:54.481Z,95528.59
2023-08-17T21:37:29.385Z,95526.41
2023-08-17T21:39:56.466Z,95536.63
2023-08-17T21:42:23.133Z,95531.97
2023-08-17T21:44:50.412Z,95528.78
2023-08-17T21:47:17.153Z,95529.91
2023-08-17T21:49:46.972Z,95540.88
2023-08-17T21:52:17.383Z,95540.63
2023-08-17T21:54:43.925Z,95539.47
2023-08-17T21:57:10.467Z,95544.34
2023-08-17T21:59:37.068Z,95540.56
2023-08-17T22:02:03.986Z,95538.69
2023-08-17T22:04:30.569Z,95541.19
2023-08-17T22:06:57.118Z,95543.28
2023-08-17T22:09:23.687Z,95546.50
2023-08-17T22:11:50.254Z,95548.44
2023-08-17T22:14:16.789Z,95542.56
2023-08-17T22:16:43.379Z,95549.31
2023-08-17T22:19:09.932Z,95557.50
2023-08-17T22:21:36.495Z,95552.34
2023-08-17T22:24:03.166Z,95546.94
2023-08-17T22:26:29.701Z,95542.34
2023-08-17T22:28:56.232Z,95554.09
2023-08-17T22:31:22.821Z,95548.44
2023-08-17T22:33:49.377Z,95552.34
2023-08-17T22:36:15.931Z,95558.78
2023-08-17T22:38:42.460Z,95564.19
2023-08-17T22:41:09.036Z,95566.34
2023-08-17T22:43:35.663Z,95561.44
2023-08-17T22:46:03.669Z,95564.97
2023-08-17T22:48:30.329Z,95565.56
2023-08-17T22:50:57.039Z,95573.44
2023-08-17T22:53:23.604Z,95579.31
2023-08-17T22:55:50.587Z,95576.13
2023-08-17T22:58:17.182Z,95575.03
2023-08-17T23:00:43.909Z,95586.41
2023-08-17T23:03:10.480Z,95585.84
2023-08-17T23:05:37.017Z,95586.66
2023-08-17T23:08:03.964Z,95589.72
2023-08-17T23:10:30.505Z,95584.00
2023-08-17T23:12:57.036Z,95583.81
2023-08-17T23:15:23.667Z,95589.72
2023-08-17T23:17:50.262Z,95582.16
2023-08-17T23:20:16.858Z,95573.78
2023-08-17T23:22:43.449Z,95572.97
2023-08-17T23:25:09.983Z,95574.06
2023-08-17T23:27:36.578Z,95586.47
2023-08-17T23:30:03.293Z,95578.34
2023-08-17T23:32:29.913Z,95585.38
2023-08-17T23:34:56.737Z,95589.69
2023-08-17T23:37:23.428Z,95595.09
2023-08-17T23:39:50.059Z,95589.41
2023-08-17T23:42:16.614Z,95588.56
2023-08-17T23:44:43.236Z,95593.44
2023-08-17T23:47:11.829Z,95591.28
2023-08-17T23:52:19.977Z,95594.03
2023-08-17T23:54:46.510Z,95592.94
2023-08-17T23:57:13.072Z,95597.25
2023-08-17T23:59:39.619Z,95592.09
